sensor_id;sensor_type;location;lat;lon;timestamp;P1;durP1;ratioP1;P2;durP2;ratioP2
39948;SDS011;29070;48.102;-1.652;2024-03-29T00:02:16;0.33;;;0.20;;
39948;SDS011;29070;48.102;-1.652;2024-03-29T00:07:17;2.40;;;0.30;;
39948;SDS011;29070;48.102;-1.652;2024-03-29T00:12:17;0.60;;;0.20;;
39948;SDS011;29070;48.102;-1.652;2024-03-29T00:17:17;0.20;;;0.10;;
39948;SDS011;29070;48.102;-1.652;2024-03-29T00:22:18;0.40;;;0.10;;
39948;SDS011;29070;48.102;-1.652;2024-03-29T00:27:18;3.50;;;0.73;;
39948;SDS011;29070;48.102;-1.652;2024-03-29T00:32:22;1.60;;;0.23;;
39948;SDS011;29070;48.102;-1.652;2024-03-29T00:37:23;1.52;;;0.35;;
39948;SDS011;29070;48.102;-1.652;2024-03-29T00:42:24;1.50;;;0.22;;
39948;SDS011;29070;48.102;-1.652;2024-03-29T00:47:24;0.60;;;0.20;;
39948;SDS011;29070;48.102;-1.652;2024-03-29T00:52:24;0.70;;;0.30;;
39948;SDS011;29070;48.102;-1.652;2024-03-29T00:57:25;0.23;;;0.20;;
39948;SDS011;29070;48.102;-1.652;2024-03-29T01:02:25;1.25;;;0.40;;
39948;SDS011;29070;48.102;-1.652;2024-03-29T01:07:25;1.35;;;0.17;;
39948;SDS011;29070;48.102;-1.652;2024-03-29T01:12:26;2.58;;;0.50;;
39948;SDS011;29070;48.102;-1.652;2024-03-29T01:17:26;0.87;;;0.17;;
39948;SDS011;29070;48.102;-1.652;2024-03-29T01:22:26;0.30;;;0.10;;
39948;SDS011;29070;48.102;-1.652;2024-03-29T01:27:27;0.53;;;0.20;;
39948;SDS011;29070;48.102;-1.652;2024-03-29T01:32:27;0.32;;;0.30;;
39948;SDS011;29070;48.102;-1.652;2024-03-29T01:37:27;0.33;;;0.20;;
39948;SDS011;29070;48.102;-1.652;2024-03-29T01:42:28;0.93;;;0.10;;
39948;SDS011;29070;48.102;-1.652;2024-03-29T01:47:28;1.47;;;0.93;;
39948;SDS011;29070;48.102;-1.652;2024-03-29T01:52:28;0.37;;;0.33;;
39948;SDS011;29070;48.102;-1.652;2024-03-29T01:57:29;0.95;;;0.10;;
39948;SDS011;29070;48.102;-1.652;2024-03-29T02:02:30;0.98;;;0.20;;
39948;SDS011;29070;48.102;-1.652;2024-03-29T02:07:30;1.27;;;0.13;;
39948;SDS011;29070;48.102;-1.652;2024-03-29T02:12:31;0.30;;;0.30;;
39948;SDS011;29070;48.102;-1.652;2024-03-29T02:17:31;0.20;;;0.10;;
39948;SDS011;29070;48.102;-1.652;2024-03-29T02:22:32;0.15;;;0.10;;
39948;SDS011;29070;48.102;-1.652;2024-03-29T02:27:40;0.40;;;0.28;;
39948;SDS011;29070;48.102;-1.652;2024-03-29T02:32:40;0.10;;;0.10;;
39948;SDS011;29070;48.102;-1.652;2024-03-29T02:37:41;1.63;;;0.20;;
39948;SDS011;29070;48.102;-1.652;2024-03-29T02:42:41;0.50;;;0.20;;
39948;SDS011;29070;48.102;-1.652;2024-03-29T02:47:42;1.17;;;0.20;;
39948;SDS011;29070;48.102;-1.652;2024-03-29T02:52:43;0.93;;;0.20;;
39948;SDS011;29070;48.102;-1.652;2024-03-29T02:57:43;2.83;;;0.35;;
39948;SDS011;29070;48.102;-1.652;2024-03-29T03:02:43;1.27;;;0.27;;
39948;SDS011;29070;48.102;-1.652;2024-03-29T03:07:44;0.52;;;0.20;;
39948;SDS011;29070;48.102;-1.652;2024-03-29T03:13:03;1.33;;;0.20;;
39948;SDS011;29070;48.102;-1.652;2024-03-29T03:18:03;0.10;;;0.10;;
39948;SDS011;29070;48.102;-1.652;2024-03-29T03:23:04;0.13;;;0.10;;
39948;SDS011;29070;48.102;-1.652;2024-03-29T03:28:04;2.03;;;0.10;;
39948;SDS011;29070;48.102;-1.652;2024-03-29T03:33:04;2.92;;;0.20;;
39948;SDS011;29070;48.102;-1.652;2024-03-29T03:38:05;0.27;;;0.10;;
39948;SDS011;29070;48.102;-1.652;2024-03-29T03:43:05;2.30;;;0.30;;
39948;SDS011;29070;48.102;-1.652;2024-03-29T03:48:07;1.98;;;0.40;;
39948;SDS011;29070;48.102;-1.652;2024-03-29T03:53:09;0.20;;;0.17;;
39948;SDS011;29070;48.102;-1.652;2024-03-29T03:58:09;1.17;;;0.27;;
39948;SDS011;29070;48.102;-1.652;2024-03-29T04:03:10;0.23;;;0.20;;
39948;SDS011;29070;48.102;-1.652;2024-03-29T04:08:10;0.20;;;0.10;;
39948;SDS011;29070;48.102;-1.652;2024-03-29T04:13:11;2.65;;;0.30;;
39948;SDS011;29070;48.102;-1.652;2024-03-29T04:18:11;1.13;;;0.27;;
39948;SDS011;29070;48.102;-1.652;2024-03-29T04:23:11;1.43;;;0.40;;
39948;SDS011;29070;48.102;-1.652;2024-03-29T04:28:12;2.13;;;0.60;;
39948;SDS011;29070;48.102;-1.652;2024-03-29T04:33:12;1.37;;;0.27;;
39948;SDS011;29070;48.102;-1.652;2024-03-29T04:38:12;0.82;;;0.40;;
39948;SDS011;29070;48.102;-1.652;2024-03-29T04:43:13;2.30;;;0.40;;
39948;SDS011;29070;48.102;-1.652;2024-03-29T04:48:13;4.40;;;0.40;;
39948;SDS011;29070;48.102;-1.652;2024-03-29T04:53:13;2.50;;;0.40;;
39948;SDS011;29070;48.102;-1.652;2024-03-29T04:58:14;3.38;;;0.55;;
39948;SDS011;29070;48.102;-1.652;2024-03-29T05:03:16;1.80;;;0.43;;
39948;SDS011;29070;48.102;-1.652;2024-03-29T05:08:17;1.80;;;0.22;;
39948;SDS011;29070;48.102;-1.652;2024-03-29T05:13:19;4.25;;;0.50;;
39948;SDS011;29070;48.102;-1.652;2024-03-29T05:18:22;4.63;;;0.65;;
39948;SDS011;29070;48.102;-1.652;2024-03-29T05:23:22;1.57;;;0.60;;
39948;SDS011;29070;48.102;-1.652;2024-03-29T05:28:23;5.15;;;0.40;;
39948;SDS011;29070;48.102;-1.652;2024-03-29T05:33:23;1.43;;;0.30;;
39948;SDS011;29070;48.102;-1.652;2024-03-29T05:38:23;4.30;;;0.50;;
39948;SDS011;29070;48.102;-1.652;2024-03-29T05:43:23;3.78;;;0.35;;
39948;SDS011;29070;48.102;-1.652;2024-03-29T05:48:24;1.77;;;0.50;;
39948;SDS011;29070;48.102;-1.652;2024-03-29T05:53:24;5.03;;;0.60;;
39948;SDS011;29070;48.102;-1.652;2024-03-29T05:58:24;1.73;;;0.30;;
39948;SDS011;29070;48.102;-1.652;2024-03-29T06:03:25;3.90;;;0.57;;
39948;SDS011;29070;48.102;-1.652;2024-03-29T06:08:25;4.00;;;0.70;;
39948;SDS011;29070;48.102;-1.652;2024-03-29T06:13:27;2.53;;;0.60;;
39948;SDS011;29070;48.102;-1.652;2024-03-29T06:18:50;3.83;;;0.55;;
39948;SDS011;29070;48.102;-1.652;2024-03-29T06:23:50;5.33;;;0.67;;
39948;SDS011;29070;48.102;-1.652;2024-03-29T06:28:50;5.30;;;0.60;;
39948;SDS011;29070;48.102;-1.652;2024-03-29T06:33:51;2.93;;;0.57;;
39948;SDS011;29070;48.102;-1.652;2024-03-29T06:38:51;3.40;;;0.47;;
39948;SDS011;29070;48.102;-1.652;2024-03-29T06:43:54;3.28;;;0.50;;
39948;SDS011;29070;48.102;-1.652;2024-03-29T06:48:55;5.57;;;1.00;;
39948;SDS011;29070;48.102;-1.652;2024-03-29T06:53:55;6.03;;;0.57;;
39948;SDS011;29070;48.102;-1.652;2024-03-29T06:58:55;5.32;;;1.42;;
39948;SDS011;29070;48.102;-1.652;2024-03-29T07:03:56;8.27;;;0.97;;
39948;SDS011;29070;48.102;-1.652;2024-03-29T07:08:56;2.60;;;0.60;;
39948;SDS011;29070;48.102;-1.652;2024-03-29T07:13:57;0.70;;;0.30;;
39948;SDS011;29070;48.102;-1.652;2024-03-29T07:18:57;0.83;;;0.20;;
39948;SDS011;29070;48.102;-1.652;2024-03-29T07:23:57;2.03;;;0.30;;
39948;SDS011;29070;48.102;-1.652;2024-03-29T07:28:58;0.40;;;0.20;;
39948;SDS011;29070;48.102;-1.652;2024-03-29T07:33:58;0.67;;;0.40;;
39948;SDS011;29070;48.102;-1.652;2024-03-29T07:38:59;2.53;;;0.30;;
39948;SDS011;29070;48.102;-1.652;2024-03-29T07:44:00;3.70;;;0.35;;
39948;SDS011;29070;48.102;-1.652;2024-03-29T07:49:03;1.77;;;0.35;;
39948;SDS011;29070;48.102;-1.652;2024-03-29T07:54:03;2.92;;;0.30;;
39948;SDS011;29070;48.102;-1.652;2024-03-29T07:59:03;2.47;;;0.37;;
39948;SDS011;29070;48.102;-1.652;2024-03-29T08:04:04;0.40;;;0.20;;
39948;SDS011;29070;48.102;-1.652;2024-03-29T08:09:05;0.93;;;0.43;;
39948;SDS011;29070;48.102;-1.652;2024-03-29T08:14:06;4.10;;;0.50;;
39948;SDS011;29070;48.102;-1.652;2024-03-29T08:19:07;3.65;;;0.35;;
39948;SDS011;29070;48.102;-1.652;2024-03-29T08:24:08;4.97;;;0.50;;
39948;SDS011;29070;48.102;-1.652;2024-03-29T08:29:08;2.75;;;0.52;;
39948;SDS011;29070;48.102;-1.652;2024-03-29T08:34:08;3.80;;;0.60;;
39948;SDS011;29070;48.102;-1.652;2024-03-29T08:39:13;2.42;;;0.70;;
39948;SDS011;29070;48.102;-1.652;2024-03-29T08:44:13;3.77;;;0.87;;
39948;SDS011;29070;48.102;-1.652;2024-03-29T08:49:13;3.90;;;0.70;;
39948;SDS011;29070;48.102;-1.652;2024-03-29T08:54:14;4.40;;;0.77;;
39948;SDS011;29070;48.102;-1.652;2024-03-29T08:59:14;6.45;;;1.02;;
39948;SDS011;29070;48.102;-1.652;2024-03-29T09:04:16;4.25;;;0.70;;
39948;SDS011;29070;48.102;-1.652;2024-03-29T09:09:16;7.32;;;0.57;;
39948;SDS011;29070;48.102;-1.652;2024-03-29T09:14:16;2.85;;;0.40;;
39948;SDS011;29070;48.102;-1.652;2024-03-29T09:19:17;3.90;;;0.40;;
39948;SDS011;29070;48.102;-1.652;2024-03-29T09:24:17;3.70;;;0.60;;
39948;SDS011;29070;48.102;-1.652;2024-03-29T09:29:17;5.47;;;0.60;;
39948;SDS011;29070;48.102;-1.652;2024-03-29T09:34:20;2.78;;;0.60;;
39948;SDS011;29070;48.102;-1.652;2024-03-29T09:39:20;4.88;;;0.60;;
39948;SDS011;29070;48.102;-1.652;2024-03-29T09:44:21;5.78;;;0.82;;
39948;SDS011;29070;48.102;-1.652;2024-03-29T09:49:24;3.40;;;0.77;;
39948;SDS011;29070;48.102;-1.652;2024-03-29T09:54:28;10.32;;;1.23;;
39948;SDS011;29070;48.102;-1.652;2024-03-29T09:59:29;6.68;;;0.90;;
39948;SDS011;29070;48.102;-1.652;2024-03-29T10:04:30;5.27;;;0.87;;
39948;SDS011;29070;48.102;-1.652;2024-03-29T10:09:32;8.50;;;0.73;;
39948;SDS011;29070;48.102;-1.652;2024-03-29T10:14:45;7.45;;;1.10;;
39948;SDS011;29070;48.102;-1.652;2024-03-29T10:19:49;4.25;;;0.50;;
39948;SDS011;29070;48.102;-1.652;2024-03-29T10:24:50;1.30;;;0.30;;
39948;SDS011;29070;48.102;-1.652;2024-03-29T10:29:51;1.60;;;0.40;;
39948;SDS011;29070;48.102;-1.652;2024-03-29T10:34:52;1.38;;;0.30;;
39948;SDS011;29070;48.102;-1.652;2024-03-29T10:39:52;1.37;;;0.13;;
39948;SDS011;29070;48.102;-1.652;2024-03-29T10:44:53;1.87;;;0.40;;
39948;SDS011;29070;48.102;-1.652;2024-03-29T10:49:56;2.70;;;0.40;;
39948;SDS011;29070;48.102;-1.652;2024-03-29T10:54:58;0.60;;;0.20;;
39948;SDS011;29070;48.102;-1.652;2024-03-29T11:05:21;4.25;;;0.30;;
39948;SDS011;29070;48.102;-1.652;2024-03-29T11:15:30;1.63;;;0.45;;
39948;SDS011;29070;48.102;-1.652;2024-03-29T11:20:31;1.67;;;0.73;;
39948;SDS011;29070;48.102;-1.652;2024-03-29T11:25:40;2.70;;;0.60;;
39948;SDS011;29070;48.102;-1.652;2024-03-29T11:30:45;1.95;;;0.60;;
39948;SDS011;29070;48.102;-1.652;2024-03-29T11:35:47;1.88;;;0.60;;
39948;SDS011;29070;48.102;-1.652;2024-03-29T11:41:21;3.92;;;0.70;;
39948;SDS011;29070;48.102;-1.652;2024-03-29T11:46:24;3.42;;;0.88;;
39948;SDS011;29070;48.102;-1.652;2024-03-29T11:51:25;3.80;;;1.00;;
39948;SDS011;29070;48.102;-1.652;2024-03-29T11:56:26;5.13;;;0.75;;
39948;SDS011;29070;48.102;-1.652;2024-03-29T12:01:26;5.60;;;0.80;;
39948;SDS011;29070;48.102;-1.652;2024-03-29T12:06:29;4.20;;;1.00;;
39948;SDS011;29070;48.102;-1.652;2024-03-29T12:11:29;3.83;;;0.63;;
39948;SDS011;29070;48.102;-1.652;2024-03-29T12:16:31;6.00;;;0.80;;
39948;SDS011;29070;48.102;-1.652;2024-03-29T12:21:42;6.88;;;1.05;;
39948;SDS011;29070;48.102;-1.652;2024-03-29T12:26:43;5.10;;;0.40;;
39948;SDS011;29070;48.102;-1.652;2024-03-29T12:31:43;2.43;;;0.40;;
39948;SDS011;29070;48.102;-1.652;2024-03-29T12:36:46;3.20;;;0.50;;
39948;SDS011;29070;48.102;-1.652;2024-03-29T12:41:47;1.13;;;0.32;;
39948;SDS011;29070;48.102;-1.652;2024-03-29T12:46:47;2.95;;;0.30;;
39948;SDS011;29070;48.102;-1.652;2024-03-29T12:51:48;4.18;;;0.40;;
39948;SDS011;29070;48.102;-1.652;2024-03-29T12:56:48;0.88;;;0.50;;
39948;SDS011;29070;48.102;-1.652;2024-03-29T13:01:49;3.70;;;0.57;;
39948;SDS011;29070;48.102;-1.652;2024-03-29T13:06:49;7.67;;;0.80;;
39948;SDS011;29070;48.102;-1.652;2024-03-29T13:11:49;2.60;;;0.77;;
39948;SDS011;29070;48.102;-1.652;2024-03-29T13:16:50;7.47;;;0.63;;
39948;SDS011;29070;48.102;-1.652;2024-03-29T13:21:50;8.77;;;0.60;;
39948;SDS011;29070;48.102;-1.652;2024-03-29T13:26:51;2.92;;;0.50;;
39948;SDS011;29070;48.102;-1.652;2024-03-29T13:31:51;4.43;;;0.65;;
39948;SDS011;29070;48.102;-1.652;2024-03-29T13:36:51;2.80;;;0.90;;
39948;SDS011;29070;48.102;-1.652;2024-03-29T13:41:52;3.50;;;0.60;;
39948;SDS011;29070;48.102;-1.652;2024-03-29T13:46:53;2.40;;;0.73;;
39948;SDS011;29070;48.102;-1.652;2024-03-29T13:51:53;3.25;;;1.05;;
39948;SDS011;29070;48.102;-1.652;2024-03-29T13:56:54;6.13;;;0.70;;
39948;SDS011;29070;48.102;-1.652;2024-03-29T14:01:54;2.95;;;0.50;;
39948;SDS011;29070;48.102;-1.652;2024-03-29T14:06:54;1.57;;;0.57;;
39948;SDS011;29070;48.102;-1.652;2024-03-29T14:11:55;4.50;;;0.55;;
39948;SDS011;29070;48.102;-1.652;2024-03-29T14:16:56;1.40;;;0.30;;
39948;SDS011;29070;48.102;-1.652;2024-03-29T14:21:57;4.22;;;0.70;;
39948;SDS011;29070;48.102;-1.652;2024-03-29T14:26:58;2.63;;;0.40;;
39948;SDS011;29070;48.102;-1.652;2024-03-29T14:31:59;1.92;;;0.43;;
39948;SDS011;29070;48.102;-1.652;2024-03-29T14:37:01;6.35;;;0.85;;
39948;SDS011;29070;48.102;-1.652;2024-03-29T14:42:01;3.23;;;0.50;;
39948;SDS011;29070;48.102;-1.652;2024-03-29T14:47:05;2.65;;;0.30;;
39948;SDS011;29070;48.102;-1.652;2024-03-29T14:52:06;3.80;;;0.50;;
39948;SDS011;29070;48.102;-1.652;2024-03-29T14:57:06;2.85;;;0.43;;
39948;SDS011;29070;48.102;-1.652;2024-03-29T15:02:06;3.93;;;0.63;;
39948;SDS011;29070;48.102;-1.652;2024-03-29T15:07:07;1.20;;;0.40;;
39948;SDS011;29070;48.102;-1.652;2024-03-29T15:12:08;4.45;;;0.70;;
39948;SDS011;29070;48.102;-1.652;2024-03-29T15:17:08;4.90;;;0.70;;
39948;SDS011;29070;48.102;-1.652;2024-03-29T15:22:09;10.55;;;0.98;;
39948;SDS011;29070;48.102;-1.652;2024-03-29T15:27:10;4.53;;;0.50;;
39948;SDS011;29070;48.102;-1.652;2024-03-29T15:32:26;3.25;;;0.60;;
39948;SDS011;29070;48.102;-1.652;2024-03-29T15:42:32;4.60;;;0.77;;
39948;SDS011;29070;48.102;-1.652;2024-03-29T15:47:35;7.00;;;0.85;;
39948;SDS011;29070;48.102;-1.652;2024-03-29T15:52:35;5.27;;;0.90;;
39948;SDS011;29070;48.102;-1.652;2024-03-29T15:57:36;5.23;;;0.90;;
39948;SDS011;29070;48.102;-1.652;2024-03-29T16:02:37;1.03;;;0.40;;
39948;SDS011;29070;48.102;-1.652;2024-03-29T16:07:47;4.13;;;0.40;;
39948;SDS011;29070;48.102;-1.652;2024-03-29T16:12:47;2.43;;;1.03;;
39948;SDS011;29070;48.102;-1.652;2024-03-29T16:17:48;0.47;;;0.20;;
39948;SDS011;29070;48.102;-1.652;2024-03-29T16:22:48;1.70;;;0.50;;
39948;SDS011;29070;48.102;-1.652;2024-03-29T16:27:48;4.33;;;0.50;;
39948;SDS011;29070;48.102;-1.652;2024-03-29T16:32:49;9.13;;;0.83;;
39948;SDS011;29070;48.102;-1.652;2024-03-29T16:37:49;2.88;;;0.63;;
39948;SDS011;29070;48.102;-1.652;2024-03-29T16:42:50;1.75;;;0.50;;
39948;SDS011;29070;48.102;-1.652;2024-03-29T16:47:50;1.87;;;0.37;;
39948;SDS011;29070;48.102;-1.652;2024-03-29T16:52:51;4.77;;;1.20;;
39948;SDS011;29070;48.102;-1.652;2024-03-29T16:57:51;1.83;;;0.43;;
39948;SDS011;29070;48.102;-1.652;2024-03-29T17:02:51;2.20;;;0.30;;
39948;SDS011;29070;48.102;-1.652;2024-03-29T17:07:53;4.32;;;0.55;;
39948;SDS011;29070;48.102;-1.652;2024-03-29T17:12:53;2.73;;;0.60;;
39948;SDS011;29070;48.102;-1.652;2024-03-29T17:17:53;2.00;;;0.37;;
39948;SDS011;29070;48.102;-1.652;2024-03-29T17:22:54;7.57;;;0.70;;
39948;SDS011;29070;48.102;-1.652;2024-03-29T17:27:54;4.87;;;0.60;;
39948;SDS011;29070;48.102;-1.652;2024-03-29T17:32:54;4.17;;;0.80;;
39948;SDS011;29070;48.102;-1.652;2024-03-29T17:37:55;6.43;;;0.80;;
39948;SDS011;29070;48.102;-1.652;2024-03-29T17:42:56;1.52;;;0.55;;
39948;SDS011;29070;48.102;-1.652;2024-03-29T17:47:56;2.72;;;0.80;;
39948;SDS011;29070;48.102;-1.652;2024-03-29T17:52:57;7.40;;;0.90;;
39948;SDS011;29070;48.102;-1.652;2024-03-29T17:57:57;4.43;;;0.90;;
39948;SDS011;29070;48.102;-1.652;2024-03-29T18:02:57;6.00;;;0.70;;
39948;SDS011;29070;48.102;-1.652;2024-03-29T18:07:58;4.63;;;0.77;;
39948;SDS011;29070;48.102;-1.652;2024-03-29T18:12:58;3.83;;;1.27;;
39948;SDS011;29070;48.102;-1.652;2024-03-29T18:17:59;2.03;;;0.80;;
39948;SDS011;29070;48.102;-1.652;2024-03-29T18:23:00;2.95;;;0.52;;
39948;SDS011;29070;48.102;-1.652;2024-03-29T18:28:01;4.43;;;0.70;;
39948;SDS011;29070;48.102;-1.652;2024-03-29T18:33:03;2.25;;;0.73;;
39948;SDS011;29070;48.102;-1.652;2024-03-29T18:38:03;4.63;;;0.73;;
39948;SDS011;29070;48.102;-1.652;2024-03-29T18:43:04;7.17;;;1.77;;
39948;SDS011;29070;48.102;-1.652;2024-03-29T18:48:04;3.57;;;0.93;;
39948;SDS011;29070;48.102;-1.652;2024-03-29T18:53:06;1.80;;;0.77;;
39948;SDS011;29070;48.102;-1.652;2024-03-29T18:58:06;5.80;;;1.40;;
39948;SDS011;29070;48.102;-1.652;2024-03-29T19:03:06;6.70;;;0.80;;
39948;SDS011;29070;48.102;-1.652;2024-03-29T19:08:07;7.50;;;1.37;;
39948;SDS011;29070;48.102;-1.652;2024-03-29T19:13:07;5.75;;;1.52;;
39948;SDS011;29070;48.102;-1.652;2024-03-29T19:18:08;6.40;;;1.10;;
39948;SDS011;29070;48.102;-1.652;2024-03-29T19:23:09;9.18;;;1.70;;
39948;SDS011;29070;48.102;-1.652;2024-03-29T19:28:09;8.30;;;1.50;;
39948;SDS011;29070;48.102;-1.652;2024-03-29T19:33:10;12.50;;;2.23;;
39948;SDS011;29070;48.102;-1.652;2024-03-29T19:38:10;10.17;;;2.00;;
39948;SDS011;29070;48.102;-1.652;2024-03-29T19:43:12;6.47;;;1.77;;
39948;SDS011;29070;48.102;-1.652;2024-03-29T19:48:12;7.73;;;1.83;;
39948;SDS011;29070;48.102;-1.652;2024-03-29T19:53:12;8.60;;;2.13;;
39948;SDS011;29070;48.102;-1.652;2024-03-29T19:58:13;3.47;;;1.23;;
39948;SDS011;29070;48.102;-1.652;2024-03-29T20:03:13;6.03;;;1.30;;
39948;SDS011;29070;48.102;-1.652;2024-03-29T20:08:14;8.40;;;1.50;;
39948;SDS011;29070;48.102;-1.652;2024-03-29T20:13:15;6.63;;;1.30;;
39948;SDS011;29070;48.102;-1.652;2024-03-29T20:18:15;3.47;;;1.23;;
39948;SDS011;29070;48.102;-1.652;2024-03-29T20:23:16;2.80;;;0.75;;
39948;SDS011;29070;48.102;-1.652;2024-03-29T20:28:17;6.70;;;1.35;;
39948;SDS011;29070;48.102;-1.652;2024-03-29T20:33:18;11.13;;;3.08;;
39948;SDS011;29070;48.102;-1.652;2024-03-29T20:38:19;9.60;;;1.63;;
39948;SDS011;29070;48.102;-1.652;2024-03-29T20:43:19;8.87;;;1.70;;
39948;SDS011;29070;48.102;-1.652;2024-03-29T20:48:19;5.40;;;1.45;;
39948;SDS011;29070;48.102;-1.652;2024-03-29T20:53:20;10.17;;;1.13;;
39948;SDS011;29070;48.102;-1.652;2024-03-29T20:58:20;6.87;;;1.33;;
39948;SDS011;29070;48.102;-1.652;2024-03-29T21:03:21;13.43;;;1.88;;
39948;SDS011;29070;48.102;-1.652;2024-03-29T21:08:40;6.35;;;2.17;;
39948;SDS011;29070;48.102;-1.652;2024-03-29T21:13:40;7.35;;;1.55;;
39948;SDS011;29070;48.102;-1.652;2024-03-29T21:18:41;10.65;;;2.45;;
39948;SDS011;29070;48.102;-1.652;2024-03-29T21:23:41;12.52;;;2.22;;
39948;SDS011;29070;48.102;-1.652;2024-03-29T21:28:42;11.27;;;1.70;;
39948;SDS011;29070;48.102;-1.652;2024-03-29T21:33:42;6.83;;;2.00;;
39948;SDS011;29070;48.102;-1.652;2024-03-29T21:38:43;10.17;;;2.43;;
39948;SDS011;29070;48.102;-1.652;2024-03-29T21:43:43;10.57;;;1.73;;
39948;SDS011;29070;48.102;-1.652;2024-03-29T21:48:43;7.87;;;1.97;;
39948;SDS011;29070;48.102;-1.652;2024-03-29T21:53:44;12.33;;;1.90;;
39948;SDS011;29070;48.102;-1.652;2024-03-29T21:58:44;7.00;;;1.50;;
39948;SDS011;29070;48.102;-1.652;2024-03-29T22:03:44;6.13;;;1.53;;
39948;SDS011;29070;48.102;-1.652;2024-03-29T22:08:45;9.50;;;1.85;;
39948;SDS011;29070;48.102;-1.652;2024-03-29T22:13:45;8.90;;;1.93;;
39948;SDS011;29070;48.102;-1.652;2024-03-29T22:18:46;9.40;;;1.93;;
39948;SDS011;29070;48.102;-1.652;2024-03-29T22:23:46;10.97;;;2.27;;
39948;SDS011;29070;48.102;-1.652;2024-03-29T22:28:46;10.40;;;2.10;;
39948;SDS011;29070;48.102;-1.652;2024-03-29T22:33:47;10.37;;;2.30;;
39948;SDS011;29070;48.102;-1.652;2024-03-29T22:38:47;10.40;;;2.10;;
39948;SDS011;29070;48.102;-1.652;2024-03-29T22:43:47;5.78;;;2.20;;
39948;SDS011;29070;48.102;-1.652;2024-03-29T22:48:48;12.43;;;2.73;;
39948;SDS011;29070;48.102;-1.652;2024-03-29T22:53:48;17.63;;;3.28;;
39948;SDS011;29070;48.102;-1.652;2024-03-29T22:58:50;9.70;;;2.53;;
39948;SDS011;29070;48.102;-1.652;2024-03-29T23:03:50;8.27;;;2.30;;
39948;SDS011;29070;48.102;-1.652;2024-03-29T23:08:50;10.40;;;2.50;;
39948;SDS011;29070;48.102;-1.652;2024-03-29T23:13:51;34.10;;;11.60;;
39948;SDS011;29070;48.102;-1.652;2024-03-29T23:18:51;13.77;;;4.17;;
39948;SDS011;29070;48.102;-1.652;2024-03-29T23:23:51;18.20;;;3.03;;
39948;SDS011;29070;48.102;-1.652;2024-03-29T23:28:52;7.75;;;2.75;;
39948;SDS011;29070;48.102;-1.652;2024-03-29T23:33:52;9.23;;;2.37;;
39948;SDS011;29070;48.102;-1.652;2024-03-29T23:38:53;8.40;;;2.20;;
39948;SDS011;29070;48.102;-1.652;2024-03-29T23:43:53;10.93;;;2.40;;
39948;SDS011;29070;48.102;-1.652;2024-03-29T23:48:53;4.05;;;1.85;;
39948;SDS011;29070;48.102;-1.652;2024-03-29T23:53:54;7.30;;;2.50;;
39948;SDS011;29070;48.102;-1.652;2024-03-29T23:58:57;6.57;;;1.80;;
